createdAt,value
2022-07-28T00:00:56.576Z,58.54
2022-07-28T00:03:23.599Z,57.97
2022-07-28T00:05:50.482Z,58.09
2022-07-28T00:08:17.400Z,57.46
2022-07-28T00:10:44.309Z,58.79
2022-07-28T00:13:11.250Z,59.57
2022-07-28T00:15:38.104Z,60.63
2022-07-28T00:18:05.002Z,61.33
2022-07-28T00:20:31.868Z,61.76
2022-07-28T00:22:58.707Z,61.98
2022-07-28T00:25:25.618Z,62.51
2022-07-28T00:27:53.341Z,62.62
2022-07-28T00:30:20.300Z,62.85
2022-07-28T00:32:47.142Z,62.31
2022-07-28T00:35:15.038Z,62.89
2022-07-28T00:37:42.546Z,63.94
2022-07-28T00:40:10.502Z,63.91
2022-07-28T00:42:37.327Z,64.30
2022-07-28T00:45:05.344Z,64.68
2022-07-28T00:47:33.719Z,64.33
2022-07-28T00:50:03.810Z,65.99
2022-07-28T00:52:30.826Z,66.71
2022-07-28T00:54:58.681Z,67.23
2022-07-28T00:57:25.581Z,67.37
2022-07-28T00:59:52.460Z,66.96
2022-07-28T01:02:19.815Z,67.07
2022-07-28T01:04:47.093Z,67.36
2022-07-28T01:07:40.291Z,67.53
2022-07-28T01:10:18.085Z,67.76
2022-07-28T01:13:11.147Z,68.20
2022-07-28T01:15:51.015Z,68.11
2022-07-28T01:18:26.421Z,68.14
2022-07-28T01:21:02.894Z,67.12
2022-07-28T01:23:32.582Z,67.23
2022-07-28T01:26:20.962Z,68.52
2022-07-28T01:29:44.511Z,67.58
2022-07-28T01:32:19.355Z,68.47
2022-07-28T01:34:56.368Z,68.57
2022-07-28T01:37:30.700Z,68.78
2022-07-28T01:40:01.640Z,68.42
2022-07-28T01:42:40.799Z,67.93
2022-07-28T01:45:09.513Z,67.16
2022-07-28T01:47:37.224Z,66.49
2022-07-28T01:50:08.630Z,67.00
2022-07-28T01:52:37.446Z,69.92
2022-07-28T01:55:06.608Z,70.87
2022-07-28T01:57:35.333Z,71.29
2022-07-28T02:00:05.359Z,72.29
2022-07-28T02:02:33.867Z,71.99
2022-07-28T02:05:04.690Z,72.24
2022-07-28T02:07:33.867Z,74.04
2022-07-28T02:10:02.650Z,73.06
2022-07-28T02:12:31.392Z,71.12
2022-07-28T02:14:59.823Z,70.80
2022-07-28T02:17:32.582Z,71.60
2022-07-28T02:20:01.167Z,71.95
2022-07-28T02:22:28.477Z,71.62
2022-07-28T02:24:56.630Z,70.95
2022-07-28T02:27:35.523Z,71.29
2022-07-28T02:30:16.466Z,71.04
2022-07-28T02:33:15.253Z,71.56
2022-07-28T02:35:50.904Z,71.77
2022-07-28T02:38:26.323Z,72.59
2022-07-28T02:40:57.570Z,72.70
2022-07-28T02:43:45.842Z,72.87
2022-07-28T02:46:20.417Z,73.49
2022-07-28T02:48:54.093Z,74.32
2022-07-28T02:51:25.018Z,75.08
2022-07-28T02:53:53.124Z,76.09
2022-07-28T02:56:21.950Z,75.87
2022-07-28T02:58:51.576Z,74.87
2022-07-28T03:01:20.703Z,75.65
2022-07-28T03:03:48.997Z,74.90
2022-07-28T03:06:17.792Z,73.89
2022-07-28T03:08:44.810Z,75.06
2022-07-28T03:11:13.938Z,73.93
2022-07-28T03:13:40.906Z,74.15
2022-07-28T03:16:08.805Z,73.97
2022-07-28T03:18:35.683Z,74.08
2022-07-28T03:21:02.572Z,74.53
2022-07-28T03:23:42.561Z,74.75
2022-07-28T03:26:33.301Z,77.05
2022-07-28T03:29:01.210Z,77.68
2022-07-28T03:31:29.352Z,77.35
2022-07-28T03:33:57.112Z,76.93
2022-07-28T03:36:31.670Z,76.41
2022-07-28T03:39:03.685Z,77.03
2022-07-28T03:41:33.742Z,77.99
2022-07-28T03:44:02.611Z,78.25
2022-07-28T03:46:29.569Z,78.39
2022-07-28T03:48:56.516Z,78.09
2022-07-28T03:51:25.509Z,78.69
2022-07-28T03:53:52.413Z,78.66
2022-07-28T03:56:19.490Z,78.42
2022-07-28T03:58:46.306Z,77.78
2022-07-28T04:01:13.192Z,76.17
2022-07-28T04:03:43.988Z,76.13
2022-07-28T04:06:15.507Z,76.23
2022-07-28T04:08:44.570Z,75.30
2022-07-28T04:11:11.442Z,75.23
2022-07-28T04:13:38.497Z,75.22
2022-07-28T04:16:07.099Z,75.17
2022-07-28T04:18:34.375Z,75.66
2022-07-28T04:21:01.278Z,75.29
2022-07-28T04:23:28.289Z,75.65
2022-07-28T04:25:55.385Z,75.94
2022-07-28T04:28:22.400Z,76.06
2022-07-28T04:30:49.382Z,76.49
2022-07-28T04:33:18.514Z,76.80
2022-07-28T04:35:46.946Z,76.30
2022-07-28T04:38:14.923Z,76.50
2022-07-28T04:40:42.475Z,76.21
2022-07-28T04:43:10.281Z,76.83
2022-07-28T04:45:37.337Z,76.72
2022-07-28T04:48:04.890Z,76.82
2022-07-28T04:50:32.619Z,76.93
2022-07-28T04:52:59.907Z,76.70
2022-07-28T04:55:26.735Z,77.01
2022-07-28T04:57:53.560Z,77.61
2022-07-28T05:00:22.806Z,76.81
2022-07-28T05:02:51.283Z,76.78
2022-07-28T05:05:18.495Z,77.15
2022-07-28T05:07:45.359Z,77.57
2022-07-28T05:10:12.754Z,77.85
2022-07-28T05:12:39.735Z,78.10
2022-07-28T05:15:07.636Z,78.11
2022-07-28T05:17:35.143Z,78.08
2022-07-28T05:20:03.335Z,78.08
2022-07-28T05:22:42.582Z,77.44
2022-07-28T05:25:21.322Z,77.31
2022-07-28T05:27:49.094Z,76.98
2022-07-28T05:30:17.129Z,76.00
2022-07-28T05:32:49.127Z,75.91
2022-07-28T05:35:16.501Z,75.85
2022-07-28T05:37:44.431Z,75.46
2022-07-28T05:40:14.361Z,75.46
2022-07-28T05:42:43.059Z,75.99
2022-07-28T05:45:15.969Z,75.64
2022-07-28T05:47:49.234Z,75.23
2022-07-28T05:50:17.794Z,75.90
2022-07-28T05:52:45.932Z,75.50
2022-07-28T05:55:13.764Z,76.15
2022-07-28T05:57:41.218Z,76.30
2022-07-28T06:00:17.750Z,76.35
2022-07-28T06:02:47.152Z,76.67
2022-07-28T06:05:14.661Z,76.73
2022-07-28T06:07:43.745Z,76.73
2022-07-28T06:10:14.055Z,76.21
2022-07-28T06:12:48.160Z,76.41
2022-07-28T06:15:27.187Z,77.45
2022-07-28T06:17:57.604Z,76.64
2022-07-28T06:20:27.758Z,78.48
2022-07-28T06:22:55.803Z,76.80
2022-07-28T06:25:25.761Z,77.13
2022-07-28T06:27:56.191Z,77.54
2022-07-28T06:30:24.280Z,76.79
2022-07-28T06:32:51.129Z,78.57
2022-07-28T06:35:19.059Z,78.90
2022-07-28T06:37:47.563Z,77.57
2022-07-28T06:40:16.777Z,77.83
2022-07-28T06:42:44.715Z,77.09
2022-07-28T06:45:19.809Z,77.15
2022-07-28T06:47:52.674Z,78.70
2022-07-28T06:50:25.539Z,78.27
2022-07-28T06:52:56.373Z,78.44
2022-07-28T06:55:23.431Z,79.71
2022-07-28T06:57:50.296Z,79.36
2022-07-28T07:00:17.479Z,76.59
2022-07-28T07:02:44.366Z,76.83
2022-07-28T07:05:12.688Z,77.41
2022-07-28T07:07:42.965Z,78.75
2022-07-28T07:10:10.453Z,76.25
2022-07-28T07:12:37.842Z,75.14
2022-07-28T07:15:05.834Z,79.76
2022-07-28T07:17:32.850Z,78.99
2022-07-28T07:19:59.956Z,76.13
2022-07-28T07:22:26.875Z,79.01
2022-07-28T07:24:57.094Z,76.28
2022-07-28T07:27:24.787Z,74.96
2022-07-28T07:29:51.631Z,80.42
2022-07-28T07:32:18.448Z,80.75
2022-07-28T07:34:45.268Z,81.36
2022-07-28T07:37:14.562Z,80.19
2022-07-28T07:39:41.977Z,78.21
2022-07-28T07:42:09.455Z,79.08
2022-07-28T07:44:36.319Z,79.70
2022-07-28T07:47:03.869Z,79.95
2022-07-28T07:49:44.946Z,81.80
2022-07-28T07:52:13.457Z,82.16
2022-07-28T07:54:40.289Z,79.54
2022-07-28T07:57:07.116Z,77.06
2022-07-28T07:59:33.942Z,79.37
2022-07-28T08:02:01.249Z,80.15
2022-07-28T08:04:28.794Z,80.05
2022-07-28T08:06:56.263Z,80.08
2022-07-28T08:09:23.761Z,78.99
2022-07-28T08:11:50.662Z,79.22
2022-07-28T08:14:18.301Z,80.11
2022-07-28T08:16:45.474Z,78.70
2022-07-28T08:19:12.289Z,78.85
2022-07-28T08:21:39.624Z,80.64
2022-07-28T08:24:07.179Z,79.69
2022-07-28T08:26:34.057Z,80.89
2022-07-28T08:29:00.905Z,80.31
2022-07-28T08:31:27.772Z,79.61
2022-07-28T08:33:55.435Z,80.28
2022-07-28T08:36:22.724Z,80.06
2022-07-28T08:38:50.011Z,79.38
2022-07-28T08:41:36.912Z,79.48
2022-07-28T08:44:04.880Z,80.44
2022-07-28T08:46:38.221Z,78.61
2022-07-28T08:49:09.416Z,79.18
2022-07-28T08:51:38.429Z,77.85
2022-07-28T08:54:07.284Z,77.65
2022-07-28T08:56:41.341Z,77.65
2022-07-28T08:59:15.471Z,77.80
2022-07-28T09:01:43.351Z,78.09
2022-07-28T09:04:11.007Z,77.33
2022-07-28T09:06:42.824Z,76.69
2022-07-28T09:09:10.474Z,76.84
2022-07-28T09:11:38.285Z,76.06
2022-07-28T09:14:05.915Z,75.81
2022-07-28T09:16:33.292Z,75.69
2022-07-28T09:19:00.126Z,74.88
2022-07-28T09:21:27.479Z,74.50
2022-07-28T09:23:54.355Z,73.71
2022-07-28T09:26:21.326Z,72.99
2022-07-28T09:28:57.363Z,72.53
2022-07-28T09:31:27.416Z,71.79
2022-07-28T09:34:03.697Z,72.22
2022-07-28T09:36:41.389Z,72.46
2022-07-28T09:39:09.115Z,71.25
2022-07-28T09:41:57.734Z,71.04
2022-07-28T09:44:29.187Z,70.46
2022-07-28T09:46:57.135Z,69.84
2022-07-28T09:49:44.444Z,68.40
2022-07-28T09:52:11.672Z,67.91
2022-07-28T09:54:41.010Z,67.70
2022-07-28T09:57:11.640Z,67.38
2022-07-28T09:59:50.820Z,65.25
2022-07-28T10:02:28.139Z,63.47
2022-07-28T10:07:29.964Z,63.33
2022-07-28T10:10:08.956Z,62.67
2022-07-28T10:12:38.422Z,61.66
2022-07-28T10:15:46.832Z,61.22
2022-07-28T10:18:17.945Z,60.51
2022-07-28T10:20:45.116Z,60.82
2022-07-28T10:23:13.611Z,60.17
2022-07-28T10:25:41.240Z,59.40
2022-07-28T10:28:10.416Z,58.82
2022-07-28T10:30:41.260Z,58.75
2022-07-28T10:33:15.503Z,58.15
2022-07-28T10:35:46.833Z,57.89
2022-07-28T10:38:22.915Z,57.02
2022-07-28T10:40:50.730Z,56.75
2022-07-28T10:43:18.072Z,56.21
2022-07-28T10:46:05.166Z,56.09
2022-07-28T10:48:33.796Z,56.07
2022-07-28T10:51:01.752Z,56.08
2022-07-28T10:53:52.654Z,55.78
2022-07-28T10:56:51.864Z,54.50
2022-07-28T10:59:58.568Z,54.07
2022-07-28T11:03:00.671Z,53.63
2022-07-28T11:05:39.648Z,53.48
2022-07-28T11:08:29.562Z,51.88
2022-07-28T11:11:07.406Z,50.89
2022-07-28T11:13:37.147Z,50.11
2022-07-28T11:16:14.264Z,49.28
2022-07-28T11:19:40.545Z,50.18
2022-07-28T11:22:18.918Z,49.90
2022-07-28T11:24:58.183Z,49.84
2022-07-28T11:27:40.237Z,47.75
2022-07-28T11:30:08.746Z,46.92
2022-07-28T11:32:50.570Z,46.27
2022-07-28T11:35:24.854Z,43.76
2022-07-28T11:38:00.854Z,39.67
2022-07-28T11:40:44.980Z,35.71
2022-07-28T11:43:37.000Z,34.36
2022-07-28T11:46:05.254Z,32.62
2022-07-28T11:48:40.954Z,30.85
2022-07-28T11:51:10.169Z,28.99
2022-07-28T11:53:55.492Z,29.56
2022-07-28T11:56:36.056Z,29.99
2022-07-28T11:59:06.272Z,31.80
2022-07-28T12:01:38.454Z,33.47
2022-07-28T12:04:14.707Z,33.74
2022-07-28T12:06:43.022Z,34.49
2022-07-28T12:09:11.203Z,35.81
2022-07-28T12:11:42.281Z,35.88
2022-07-28T12:14:16.385Z,36.40
2022-07-28T12:16:46.345Z,36.21
2022-07-28T12:19:19.408Z,37.23
2022-07-28T12:21:55.725Z,38.05
2022-07-28T12:24:44.878Z,38.11
2022-07-28T12:27:15.124Z,38.61
2022-07-28T12:29:42.515Z,38.09
2022-07-28T12:32:09.986Z,37.90
2022-07-28T12:34:39.888Z,38.17
2022-07-28T12:37:12.167Z,38.28
2022-07-28T12:39:41.998Z,38.62
2022-07-28T12:42:13.294Z,38.99
2022-07-28T12:44:47.580Z,39.19
2022-07-28T12:47:24.599Z,39.92
2022-07-28T12:50:14.016Z,38.83
2022-07-28T12:52:43.465Z,38.37
2022-07-28T12:55:27.052Z,38.48
2022-07-28T12:57:54.188Z,36.50
2022-07-28T13:00:26.215Z,36.85
2022-07-28T13:02:57.133Z,37.38
2022-07-28T13:06:00.589Z,37.20
2022-07-28T13:08:29.451Z,37.00
2022-07-28T13:10:58.779Z,36.54
2022-07-28T13:13:26.742Z,36.62
2022-07-28T13:16:17.477Z,36.41
2022-07-28T13:18:53.513Z,36.51
2022-07-28T13:21:58.681Z,36.56
2022-07-28T13:24:29.870Z,36.96
2022-07-28T13:26:58.237Z,37.06
2022-07-28T13:29:25.801Z,37.44
2022-07-28T13:31:54.541Z,37.50
2022-07-28T13:34:21.901Z,37.03
2022-07-28T13:36:48.712Z,37.14
2022-07-28T13:39:15.546Z,37.00
2022-07-28T13:41:58.549Z,37.46
2022-07-28T13:44:30.444Z,37.67
2022-07-28T13:46:59.443Z,37.23
2022-07-28T13:49:34.233Z,37.57
2022-07-28T13:52:02.202Z,37.47
2022-07-28T13:54:29.225Z,37.42
2022-07-28T13:56:56.241Z,37.56
2022-07-28T13:59:24.052Z,37.36
2022-07-28T14:01:55.280Z,38.02
2022-07-28T14:04:22.621Z,37.70
2022-07-28T14:06:49.681Z,37.47
2022-07-28T14:09:18.051Z,37.32
2022-07-28T14:11:49.476Z,37.20
2022-07-28T14:14:20.156Z,37.02
2022-07-28T14:16:48.113Z,38.14
2022-07-28T14:19:16.587Z,37.25
2022-07-28T14:21:50.511Z,37.28
2022-07-28T14:24:17.843Z,37.08
2022-07-28T14:26:44.920Z,37.21
2022-07-28T14:29:11.932Z,37.02
2022-07-28T14:31:39.039Z,37.27
2022-07-28T14:34:05.891Z,37.71
2022-07-28T14:36:32.723Z,37.52
2022-07-28T14:38:59.560Z,37.19
2022-07-28T14:41:26.432Z,36.88
2022-07-28T14:43:56.290Z,37.13
2022-07-28T14:46:29.786Z,37.60
2022-07-28T14:48:57.102Z,37.22
2022-07-28T14:51:24.032Z,36.85
2022-07-28T14:53:52.146Z,36.84
2022-07-28T14:56:19.188Z,36.90
2022-07-28T14:58:45.997Z,36.87
2022-07-28T15:01:12.825Z,36.98
2022-07-28T15:03:43.064Z,36.60
2022-07-28T15:06:10.772Z,36.15
2022-07-28T15:08:37.638Z,36.71
2022-07-28T15:11:04.487Z,36.18
2022-07-28T15:13:31.299Z,35.65
2022-07-28T15:16:00.047Z,36.02
2022-07-28T15:18:27.145Z,35.27
2022-07-28T15:20:56.141Z,35.44
2022-07-28T15:23:24.271Z,35.61
2022-07-28T15:25:52.983Z,35.23
2022-07-28T15:28:19.935Z,34.98
2022-07-28T15:30:51.873Z,35.47
2022-07-28T15:33:20.478Z,34.85
2022-07-28T15:35:57.908Z,35.49
2022-07-28T15:38:27.747Z,35.82
2022-07-28T15:40:55.337Z,34.57
2022-07-28T15:43:23.736Z,34.78
2022-07-28T15:45:51.294Z,35.47
2022-07-28T15:48:18.127Z,35.69
2022-07-28T15:50:48.379Z,36.08
2022-07-28T15:53:18.228Z,35.65
2022-07-28T15:55:50.543Z,36.12
2022-07-28T15:58:17.984Z,35.19
2022-07-28T16:00:45.895Z,35.26
2022-07-28T16:03:13.439Z,36.17
2022-07-28T16:05:40.630Z,35.83
2022-07-28T16:08:07.727Z,35.30
2022-07-28T16:10:34.601Z,36.11
2022-07-28T16:13:01.641Z,36.24
2022-07-28T16:15:28.511Z,35.84
2022-07-28T16:17:55.763Z,35.78
2022-07-28T16:20:24.309Z,35.99
2022-07-28T16:22:51.445Z,36.16
2022-07-28T16:25:20.333Z,36.52
2022-07-28T16:27:48.904Z,36.20
2022-07-28T16:30:18.568Z,35.99
2022-07-28T16:32:46.411Z,35.85
2022-07-28T16:35:14.194Z,35.91
2022-07-28T16:37:41.169Z,35.91
2022-07-28T16:40:10.881Z,36.12
2022-07-28T16:42:37.750Z,36.09
2022-07-28T16:45:05.251Z,36.32
2022-07-28T16:47:32.128Z,36.30
2022-07-28T16:49:59.247Z,36.25
2022-07-28T16:52:27.413Z,35.79
2022-07-28T16:54:54.316Z,36.57
2022-07-28T16:57:21.165Z,36.04
2022-07-28T16:59:49.051Z,36.27
2022-07-28T17:02:17.326Z,36.10
2022-07-28T17:04:44.422Z,35.42
2022-07-28T17:07:11.367Z,35.29
2022-07-28T17:09:39.137Z,35.98
2022-07-28T17:12:07.317Z,36.04
2022-07-28T17:14:34.157Z,35.60
2022-07-28T17:17:00.983Z,36.17
2022-07-28T17:19:27.829Z,36.17
2022-07-28T17:22:01.105Z,36.23
2022-07-28T17:24:28.119Z,36.32
2022-07-28T17:29:42.580Z,36.70
2022-07-28T17:32:10.176Z,36.06
2022-07-28T17:34:37.775Z,36.57
2022-07-28T17:37:05.266Z,36.00
2022-07-28T17:39:32.370Z,37.12
2022-07-28T17:41:59.244Z,36.77
2022-07-28T17:44:26.079Z,35.48
2022-07-28T17:46:53.053Z,36.58
2022-07-28T17:49:20.109Z,36.19
2022-07-28T17:51:47.557Z,37.05
2022-07-28T17:54:15.751Z,36.45
2022-07-28T17:56:42.850Z,36.93
2022-07-28T17:59:10.405Z,37.40
2022-07-28T18:01:38.964Z,36.72
2022-07-28T18:04:09.125Z,38.03
2022-07-28T18:06:38.321Z,37.85
2022-07-28T18:09:08.585Z,37.82
2022-07-28T18:11:55.927Z,37.76
2022-07-28T18:14:30.214Z,38.50
2022-07-28T18:16:58.382Z,38.73
2022-07-28T18:19:27.071Z,38.17
2022-07-28T18:21:54.300Z,38.44
2022-07-28T18:24:22.405Z,38.32
2022-07-28T18:26:51.338Z,38.20
2022-07-28T18:29:20.175Z,38.21
2022-07-28T18:31:48.364Z,38.87
2022-07-28T18:34:15.718Z,38.50
2022-07-28T18:36:43.219Z,38.34
2022-07-28T18:39:10.524Z,37.98
2022-07-28T18:41:46.347Z,38.30
2022-07-28T18:44:18.364Z,37.86
2022-07-28T18:46:46.071Z,38.93
2022-07-28T18:49:13.407Z,38.67
2022-07-28T18:51:44.900Z,38.62
2022-07-28T18:54:21.503Z,38.68
2022-07-28T18:56:54.111Z,39.66
2022-07-28T18:59:21.844Z,38.45
2022-07-28T19:01:48.764Z,39.09
2022-07-28T19:04:16.075Z,38.82
2022-07-28T19:06:43.246Z,38.53
2022-07-28T19:09:10.138Z,38.42
2022-07-28T19:11:38.405Z,39.16
2022-07-28T19:14:07.046Z,38.30
2022-07-28T19:16:33.954Z,38.69
2022-07-28T19:19:00.762Z,39.03
2022-07-28T19:21:28.036Z,38.79
2022-07-28T19:23:54.865Z,39.42
2022-07-28T19:26:21.885Z,39.01
2022-07-28T19:28:48.761Z,39.35
2022-07-28T19:31:15.700Z,38.84
2022-07-28T19:33:43.923Z,39.35
2022-07-28T19:36:13.665Z,39.42
2022-07-28T19:38:41.250Z,39.63
2022-07-28T19:41:09.207Z,40.10
2022-07-28T19:43:36.363Z,39.55
2022-07-28T19:46:03.490Z,39.41
2022-07-28T19:48:30.517Z,40.06
2022-07-28T19:50:57.563Z,40.02
2022-07-28T19:53:25.329Z,40.15
2022-07-28T19:55:59.282Z,40.95
2022-07-28T19:58:26.211Z,43.18
2022-07-28T20:00:53.680Z,44.06
2022-07-28T20:04:02.613Z,50.69
2022-07-28T20:06:10.850Z,56.45
2022-07-28T20:08:38.105Z,70.66
2022-07-28T20:11:05.217Z,80.64
2022-07-28T20:13:32.040Z,86.12
2022-07-28T20:15:58.935Z,92.07
2022-07-28T20:18:25.847Z,88.46
2022-07-28T20:20:52.674Z,84.44
2022-07-28T20:23:19.572Z,93.30
2022-07-28T20:25:46.741Z,100.00
2022-07-28T20:28:13.582Z,100.00
2022-07-28T20:30:40.661Z,100.00
2022-07-28T20:33:08.185Z,100.00
2022-07-28T20:35:35.203Z,100.00
2022-07-28T20:38:03.035Z,100.00
2022-07-28T20:40:29.891Z,100.00
2022-07-28T20:42:56.720Z,100.00
2022-07-28T20:45:23.780Z,100.00
2022-07-28T20:47:50.678Z,100.00
2022-07-28T20:50:17.716Z,100.00
2022-07-28T20:52:44.626Z,100.00
2022-07-28T20:55:12.309Z,100.00
2022-07-28T20:57:39.175Z,100.00
2022-07-28T21:00:07.739Z,100.00
2022-07-28T21:30:28.100Z,100.00
2022-07-28T21:33:38.297Z,100.00
2022-07-28T21:36:51.857Z,100.00
2022-07-28T21:54:47.971Z,100.00
2022-07-28T21:57:20.949Z,100.00
2022-07-28T21:59:53.728Z,100.00
2022-07-28T22:02:20.669Z,100.00
2022-07-28T22:04:51.399Z,100.00
2022-07-28T22:07:18.302Z,100.00
2022-07-28T22:09:45.286Z,100.00
2022-07-28T22:12:12.266Z,100.00
2022-07-28T22:14:39.128Z,100.00
2022-07-28T22:17:06.009Z,100.00
2022-07-28T22:19:32.831Z,100.00
2022-07-28T22:21:59.931Z,100.00
2022-07-28T22:24:26.847Z,100.00
2022-07-28T22:26:53.953Z,100.00
2022-07-28T22:29:20.876Z,100.00
2022-07-28T22:31:47.854Z,100.00
2022-07-28T22:34:15.082Z,100.00
2022-07-28T22:36:42.097Z,100.00
2022-07-28T22:39:09.975Z,100.00
2022-07-28T22:41:36.822Z,100.00
2022-07-28T22:44:04.135Z,100.00
2022-07-28T22:46:34.144Z,100.00
2022-07-28T22:49:01.099Z,100.00
2022-07-28T22:51:28.064Z,100.00
2022-07-28T22:53:55.210Z,100.00
2022-07-28T22:56:22.064Z,100.00
2022-07-28T22:58:48.891Z,100.00
2022-07-28T23:01:15.812Z,100.00
2022-07-28T23:03:43.036Z,100.00
2022-07-28T23:06:11.868Z,100.00
2022-07-28T23:08:38.761Z,100.00
2022-07-28T23:11:05.888Z,100.00
2022-07-28T23:13:32.771Z,100.00
2022-07-28T23:15:59.641Z,100.00
2022-07-28T23:18:26.494Z,100.00
2022-07-28T23:20:53.330Z,100.00
2022-07-28T23:23:21.229Z,100.00
2022-07-28T23:25:55.222Z,100.00
2022-07-28T23:38:29.444Z,100.00
2022-07-28T23:41:03.923Z,100.00
2022-07-28T23:44:13.134Z,100.00
2022-07-28T23:46:52.843Z,100.00
